Time;durP1;ratioP1;P1;durP2;ratioP2;P2;SDS_P1;SDS_P2;PMS_P1;PMS_P2;Temp;Humidity;BMP_temperature;BMP_pressure;BME280_temperature;BME280_humidity;BME280_pressure;Samples;Min_cycle;Max_cycle;Signal;HPM_P1;HPM_P2
2021/04/30 00:00:43;;;;;;;1.63;0.80;;;23.50;37.90;;;;;;5012434;28;20396;-66
2021/04/30 00:03:09;;;;;;;1.33;0.80;;;23.50;37.90;;;;;;5012856;28;20389;-66
2021/04/30 00:05:34;;;;;;;1.08;0.70;;;23.40;37.80;;;;;;5012940;28;20408;-66
2021/04/30 00:08:00;;;;;;;1.63;0.90;;;23.40;37.80;;;;;;5012677;28;20908;-66
2021/04/30 00:10:27;;;;;;;1.40;1.00;;;23.50;37.90;;;;;;5012740;28;20389;-66
2021/04/30 00:12:53;;;;;;;1.27;0.90;;;23.50;37.90;;;;;;5012194;28;20450;-66
2021/04/30 00:15:19;;;;;;;1.40;0.80;;;23.50;37.90;;;;;;5012473;28;20389;-66
2021/04/30 00:17:44;;;;;;;0.90;0.70;;;23.50;37.90;;;;;;5012586;28;20507;-66
2021/04/30 00:20:12;;;;;;;1.50;0.73;;;23.40;37.80;;;;;;5012649;28;20451;-66
2021/04/30 00:22:37;;;;;;;1.30;0.80;;;23.50;37.90;;;;;;5012078;28;20399;-65
2021/04/30 00:25:04;;;;;;;1.45;0.80;;;23.40;37.80;;;;;;5011233;28;20479;-66
2021/04/30 00:27:30;;;;;;;1.40;0.77;;;23.40;37.80;;;;;;5012395;28;21000;-66
2021/04/30 00:29:56;;;;;;;1.33;0.80;;;23.50;37.90;;;;;;5012438;28;20493;-66
2021/04/30 00:32:21;;;;;;;1.40;0.80;;;23.40;37.90;;;;;;5012280;28;20769;-66
2021/04/30 00:34:47;;;;;;;1.60;0.80;;;23.50;37.90;;;;;;5011852;28;20397;-66
2021/04/30 00:37:13;;;;;;;1.30;0.82;;;23.40;37.80;;;;;;5012317;28;20391;-66
2021/04/30 00:39:39;;;;;;;1.60;0.77;;;23.40;37.90;;;;;;5012193;28;20749;-65
2021/04/30 00:42:05;;;;;;;1.60;0.90;;;23.40;38.50;;;;;;5012243;28;20451;-66
2021/04/30 00:44:31;;;;;;;1.73;0.90;;;23.40;37.80;;;;;;5012278;28;20388;-66
2021/04/30 00:46:57;;;;;;;1.40;0.80;;;23.40;37.80;;;;;;5010189;28;20428;-66
2021/04/30 00:49:22;;;;;;;1.20;0.80;;;23.40;37.80;;;;;;5012210;28;20400;-65
2021/04/30 00:51:48;;;;;;;1.58;0.95;;;23.40;37.80;;;;;;5011955;28;20403;-66
2021/04/30 00:54:14;;;;;;;1.45;0.85;;;23.40;37.80;;;;;;5012040;28;20400;-66
2021/04/30 00:56:40;;;;;;;1.47;0.80;;;23.40;37.80;;;;;;5011489;28;20430;-66
2021/04/30 00:59:06;;;;;;;1.83;1.00;;;23.40;37.80;;;;;;5011969;28;20411;-65
2021/04/30 01:01:33;;;;;;;1.30;0.85;;;23.40;37.80;;;;;;5011947;28;20412;-64
2021/04/30 01:03:59;;;;;;;1.20;0.80;;;23.40;37.80;;;;;;5011753;28;20472;-66
2021/04/30 01:06:25;;;;;;;1.45;0.80;;;23.40;37.80;;;;;;5011738;28;20404;-66
2021/04/30 01:08:50;;;;;;;1.57;0.90;;;23.40;37.80;;;;;;5011402;28;20422;-66
2021/04/30 01:11:16;;;;;;;1.30;0.88;;;23.40;37.80;;;;;;5011883;28;20464;-66
2021/04/30 01:13:42;;;;;;;1.20;0.90;;;23.40;37.80;;;;;;5011613;28;20408;-66
2021/04/30 01:16:08;;;;;;;1.27;0.90;;;23.40;37.80;;;;;;5011777;28;20381;-66
2021/04/30 01:18:44;;;;;;;1.17;0.73;;;23.40;37.90;;;;;;5011801;28;20393;-66
2021/04/30 01:21:10;;;;;;;1.15;0.70;;;23.40;37.80;;;;;;5011797;28;20404;-66
2021/04/30 01:23:51;;;;;;;1.60;0.80;;;23.40;37.90;;;;;;5011725;28;20480;-66
2021/04/30 01:26:17;;;;;;;1.80;0.90;;;23.30;37.80;;;;;;5011769;28;20443;-65
2021/04/30 01:28:43;;;;;;;1.40;0.90;;;23.30;37.80;;;;;;5011096;28;20421;-66
2021/04/30 01:31:09;;;;;;;1.88;0.80;;;23.40;37.80;;;;;;5011745;28;20800;-66
2021/04/30 01:33:35;;;;;;;1.20;0.80;;;23.40;37.80;;;;;;5011647;28;20408;-66
2021/04/30 01:36:01;;;;;;;1.17;0.80;;;23.40;37.70;;;;;;5011884;28;20476;-66
2021/04/30 01:38:27;;;;;;;1.10;0.80;;;23.40;37.80;;;;;;5011624;28;20818;-66
2021/04/30 01:40:53;;;;;;;1.80;0.80;;;23.30;37.70;;;;;;5011139;28;20543;-66
2021/04/30 01:43:20;;;;;;;1.15;0.70;;;23.40;37.80;;;;;;5011548;28;20468;-66
2021/04/30 01:45:52;;;;;;;1.40;0.80;;;23.30;37.80;;;;;;5011391;28;20401;-66
2021/04/30 01:48:20;;;;;;;1.50;1.00;;;23.40;37.80;;;;;;5011775;28;20416;-66
2021/04/30 01:50:46;;;;;;;1.70;0.90;;;23.30;37.80;;;;;;5010970;28;20476;-66
2021/04/30 01:53:15;;;;;;;1.50;1.00;;;23.30;37.80;;;;;;5011493;28;20443;-65
2021/04/30 01:55:41;;;;;;;1.02;0.70;;;23.30;37.70;;;;;;5011322;28;20869;-67
2021/04/30 01:58:07;;;;;;;1.30;0.77;;;23.30;37.70;;;;;;5011489;28;20424;-67
2021/04/30 02:00:32;;;;;;;1.80;0.90;;;23.30;37.80;;;;;;5011339;28;20416;-66
2021/04/30 02:02:59;;;;;;;1.27;0.88;;;23.30;37.80;;;;;;5010856;28;20385;-66
2021/04/30 02:05:28;;;;;;;1.40;0.90;;;23.30;37.70;;;;;;5010065;28;20412;-66
2021/04/30 02:07:54;;;;;;;1.55;0.80;;;23.30;37.70;;;;;;5011268;28;20416;-66
2021/04/30 02:10:24;;;;;;;1.25;0.82;;;23.30;37.80;;;;;;5011392;28;20391;-66
2021/04/30 02:12:52;;;;;;;1.63;0.98;;;23.30;37.70;;;;;;5010755;28;20392;-66
2021/04/30 02:15:20;;;;;;;1.55;0.90;;;23.30;37.70;;;;;;5011044;28;20409;-67
2021/04/30 02:17:46;;;;;;;2.05;1.10;;;23.30;37.70;;;;;;5012476;28;20999;-66
2021/04/30 02:20:13;;;;;;;1.80;1.00;;;23.30;37.70;;;;;;5014821;28;20479;-66
2021/04/30 02:22:40;;;;;;;1.38;0.80;;;23.30;37.70;;;;;;5014703;28;20404;-66
2021/04/30 02:25:08;;;;;;;1.50;0.80;;;23.30;37.60;;;;;;5014448;28;20475;-66
2021/04/30 02:27:34;;;;;;;1.30;0.70;;;23.30;37.60;;;;;;5014578;28;20428;-65
2021/04/30 02:30:00;;;;;;;1.33;0.80;;;23.30;37.70;;;;;;5013376;28;20392;-65
2021/04/30 02:32:26;;;;;;;1.40;0.63;;;23.30;37.70;;;;;;5014590;28;20872;-66
2021/04/30 02:34:52;;;;;;;1.65;0.95;;;23.30;37.70;;;;;;5014201;28;20396;-64
2021/04/30 02:37:19;;;;;;;1.50;0.98;;;23.30;37.80;;;;;;5014399;28;20813;-65
2021/04/30 02:39:45;;;;;;;1.10;0.77;;;23.30;37.70;;;;;;5014295;28;20420;-66
2021/04/30 02:42:11;;;;;;;1.13;0.80;;;23.30;37.70;;;;;;5014457;28;20484;-66
2021/04/30 02:44:37;;;;;;;1.27;0.80;;;23.30;37.70;;;;;;5014354;28;20498;-66
2021/04/30 02:47:03;;;;;;;1.73;1.00;;;23.30;37.70;;;;;;5013753;28;20499;-66
2021/04/30 02:49:43;;;;;;;1.40;0.90;;;23.30;37.70;;;;;;5014248;28;20397;-66
2021/04/30 02:52:10;;;;;;;1.50;1.00;;;23.20;37.70;;;;;;5014322;28;20412;-66
2021/04/30 02:54:36;;;;;;;1.40;0.80;;;23.30;37.70;;;;;;5013970;28;20396;-64
2021/04/30 02:57:03;;;;;;;1.40;0.90;;;23.30;37.70;;;;;;5013571;28;20796;-65
2021/04/30 02:59:29;;;;;;;1.25;0.80;;;23.30;37.70;;;;;;5014027;28;20401;-66
2021/04/30 03:01:55;;;;;;;1.20;0.80;;;23.30;37.70;;;;;;5013882;28;20403;-66
2021/04/30 03:04:21;;;;;;;1.50;0.80;;;23.30;37.60;;;;;;5014005;28;20397;-66
2021/04/30 03:06:47;;;;;;;1.33;0.80;;;23.20;37.60;;;;;;5013315;28;20718;-66
2021/04/30 03:09:13;;;;;;;1.40;0.90;;;23.20;37.50;;;;;;5013892;28;20404;-66
2021/04/30 03:11:39;;;;;;;1.33;0.90;;;23.20;37.60;;;;;;5013856;28;20385;-66
2021/04/30 03:14:05;;;;;;;1.50;0.90;;;23.20;37.60;;;;;;5013569;28;20405;-66
2021/04/30 03:16:31;;;;;;;1.10;0.80;;;23.20;37.70;;;;;;5013823;28;20939;-66
2021/04/30 03:18:57;;;;;;;1.38;0.80;;;23.20;37.60;;;;;;5013144;28;20393;-66
2021/04/30 03:21:23;;;;;;;1.38;0.88;;;23.20;37.60;;;;;;5013697;28;20400;-66
2021/04/30 03:23:49;;;;;;;2.30;0.90;;;23.20;37.60;;;;;;5013537;28;20388;-67
2021/04/30 03:26:14;;;;;;;1.20;0.88;;;23.20;37.60;;;;;;5013587;28;20761;-66
2021/04/30 03:28:40;;;;;;;1.20;0.90;;;23.30;37.60;;;;;;5013257;28;20893;-66
2021/04/30 03:31:06;;;;;;;1.60;1.00;;;23.20;37.60;;;;;;5013037;28;20385;-66
2021/04/30 03:33:32;;;;;;;1.60;0.82;;;23.20;37.60;;;;;;5013395;28;20393;-65
2021/04/30 03:35:57;;;;;;;1.40;0.83;;;23.20;37.60;;;;;;5013459;28;20400;-66
2021/04/30 03:38:23;;;;;;;1.20;0.90;;;23.20;37.60;;;;;;5013339;28;20927;-66
2021/04/30 03:40:49;;;;;;;1.02;0.70;;;23.20;37.60;;;;;;5012800;28;20440;-65
2021/04/30 03:43:14;;;;;;;1.27;0.80;;;23.20;38.20;;;;;;5013213;28;20857;-65
2021/04/30 03:45:41;;;;;;;1.08;0.80;;;23.20;37.50;;;;;;5013004;28;20387;-65
2021/04/30 03:48:07;;;;;;;1.25;0.77;;;23.20;38.10;;;;;;5013064;28;20896;-65
2021/04/30 03:50:33;;;;;;;0.90;0.60;;;23.20;37.50;;;;;;5013064;28;20992;-65
2021/04/30 03:52:58;;;;;;;1.53;0.87;;;23.20;37.50;;;;;;5011312;28;20488;-66
2021/04/30 03:55:24;;;;;;;1.38;0.80;;;23.20;37.50;;;;;;5013099;28;20435;-66
2021/04/30 03:57:50;;;;;;;1.13;0.80;;;23.20;37.50;;;;;;5012925;28;20440;-66
2021/04/30 04:00:16;;;;;;;1.17;0.75;;;23.20;37.50;;;;;;5012989;28;20434;-65
2021/04/30 04:02:42;;;;;;;1.20;0.70;;;23.20;38.10;;;;;;5013085;28;20425;-67
2021/04/30 04:05:08;;;;;;;1.20;0.75;;;23.20;37.50;;;;;;5012341;28;20381;-66
2021/04/30 04:07:34;;;;;;;1.35;0.80;;;23.20;37.50;;;;;;5012623;28;20427;-66
2021/04/30 04:10:00;;;;;;;2.60;0.90;;;23.20;37.50;;;;;;5012839;28;20393;-66
2021/04/30 04:12:25;;;;;;;2.30;0.73;;;23.10;37.50;;;;;;5012630;28;20429;-66
2021/04/30 04:14:51;;;;;;;3.67;1.20;;;23.10;37.40;;;;;;5011899;28;20437;-66
2021/04/30 04:17:17;;;;;;;1.90;0.80;;;23.10;37.30;;;;;;5012603;28;20397;-66
2021/04/30 04:19:49;;;;;;;1.77;0.80;;;23.10;37.20;;;;;;5012650;28;20467;-65
2021/04/30 04:22:18;;;;;;;1.10;0.70;;;23.00;37.50;;;;;;5012418;28;20400;-66
2021/04/30 04:24:44;;;;;;;1.65;0.80;;;23.00;37.90;;;;;;5012517;28;20388;-66
2021/04/30 04:27:10;;;;;;;1.92;0.70;;;23.00;37.60;;;;;;5011968;28;20408;-64
2021/04/30 04:29:37;;;;;;;1.70;0.70;;;22.90;37.70;;;;;;5012443;28;20389;-66
2021/04/30 04:32:04;;;;;;;2.03;0.70;;;22.90;37.80;;;;;;5012385;28;20417;-66
2021/04/30 04:34:29;;;;;;;2.13;0.90;;;23.00;37.80;;;;;;5012271;28;20384;-67
2021/04/30 04:36:55;;;;;;;1.50;0.70;;;23.00;37.90;;;;;;5011762;28;20479;-67
2021/04/30 04:39:21;;;;;;;1.40;0.80;;;22.90;37.80;;;;;;5011748;28;20385;-68
2021/04/30 04:41:47;;;;;;;1.30;0.70;;;22.90;37.80;;;;;;5012370;28;20445;-67
2021/04/30 04:44:13;;;;;;;1.70;0.70;;;22.90;38.00;;;;;;5012257;28;20420;-65
2021/04/30 04:46:39;;;;;;;2.83;0.80;;;22.90;38.30;;;;;;5012010;28;20503;-64
2021/04/30 04:49:05;;;;;;;2.23;0.80;;;22.90;38.20;;;;;;5023426;28;20798;-66
2021/04/30 04:51:32;;;;;;;3.25;0.85;;;22.80;38.60;;;;;;5013629;28;20389;-67
2021/04/30 04:53:59;;;;;;;4.30;0.80;;;22.80;39.00;;;;;;5028125;28;20402;-67
2021/04/30 04:56:26;;;;;;;4.53;0.80;;;22.80;38.90;;;;;;5016717;28;20383;-64
2021/04/30 04:58:56;;;;;;;6.13;0.90;;;22.80;39.00;;;;;;5022694;28;20415;-66
2021/04/30 05:01:22;;;;;;;2.20;0.88;;;22.80;38.90;;;;;;5024326;28;20395;-67
2021/04/30 05:03:48;;;;;;;2.47;0.80;;;22.80;38.70;;;;;;5015659;28;20397;-66
2021/04/30 05:06:13;;;;;;;4.63;1.23;;;22.80;39.00;;;;;;5031236;28;20388;-66
2021/04/30 05:08:40;;;;;;;4.85;1.00;;;22.80;39.40;;;;;;5031098;28;20410;-66
2021/04/30 05:11:05;;;;;;;4.55;1.05;;;22.80;39.90;;;;;;5030911;28;20430;-66
2021/04/30 05:13:32;;;;;;;3.67;0.93;;;22.80;39.50;;;;;;5031485;28;20947;-64
2021/04/30 05:15:59;;;;;;;2.90;0.90;;;22.70;39.40;;;;;;5031158;28;20814;-66
2021/04/30 05:18:25;;;;;;;2.97;0.90;;;22.70;39.60;;;;;;5031365;28;20437;-64
2021/04/30 05:20:52;;;;;;;3.05;0.80;;;22.70;39.50;;;;;;5031135;28;20430;-64
2021/04/30 05:23:18;;;;;;;3.60;1.00;;;22.70;39.40;;;;;;5031255;28;20418;-66
2021/04/30 05:25:45;;;;;;;2.50;0.80;;;22.70;39.30;;;;;;5031323;28;20418;-67
2021/04/30 05:28:10;;;;;;;6.28;1.10;;;22.70;39.50;;;;;;5031476;28;20411;-67
2021/04/30 05:30:36;;;;;;;4.93;1.20;;;22.70;39.40;;;;;;5031481;28;20387;-67
2021/04/30 05:33:02;;;;;;;5.60;1.10;;;22.70;39.70;;;;;;5029578;28;20394;-66
2021/04/30 05:35:28;;;;;;;3.07;1.00;;;22.70;39.90;;;;;;5031185;28;20403;-65
2021/04/30 05:37:54;;;;;;;3.42;0.80;;;22.70;40.00;;;;;;5031191;28;20448;-66
2021/04/30 05:40:20;;;;;;;3.60;0.90;;;22.70;40.50;;;;;;5031218;28;20399;-67
2021/04/30 05:42:46;;;;;;;2.63;0.70;;;22.70;39.80;;;;;;5031230;28;20399;-67
2021/04/30 05:45:12;;;;;;;3.30;1.00;;;22.70;39.40;;;;;;5030749;28;20528;-66
2021/04/30 05:47:38;;;;;;;2.03;0.93;;;22.80;39.30;;;;;;5031232;28;20410;-66
2021/04/30 05:50:05;;;;;;;2.93;0.80;;;22.70;39.00;;;;;;5031108;28;20391;-65
2021/04/30 05:52:30;;;;;;;2.60;1.02;;;22.70;39.10;;;;;;5033383;28;20395;-65
2021/04/30 05:54:56;;;;;;;2.40;0.95;;;22.70;39.40;;;;;;5034388;28;20411;-65
2021/04/30 05:57:22;;;;;;;3.37;0.90;;;22.70;39.10;;;;;;5033534;28;20409;-67
2021/04/30 05:59:47;;;;;;;1.80;0.90;;;22.70;39.00;;;;;;5033386;28;20470;-66
2021/04/30 06:02:13;;;;;;;2.07;0.90;;;22.80;39.00;;;;;;5034253;28;20426;-66
2021/04/30 06:04:39;;;;;;;2.15;0.80;;;22.80;38.90;;;;;;5033397;28;20956;-65
2021/04/30 06:07:04;;;;;;;2.50;0.85;;;22.80;38.90;;;;;;5033608;28;20411;-67
2021/04/30 06:09:30;;;;;;;2.30;0.98;;;22.80;39.00;;;;;;5033611;28;20394;-64
2021/04/30 06:11:56;;;;;;;3.10;0.90;;;22.80;39.00;;;;;;5033928;28;20395;-66
2021/04/30 06:14:26;;;;;;;2.08;0.80;;;22.70;39.00;;;;;;5033024;28;20410;-66
2021/04/30 06:16:51;;;;;;;1.67;0.80;;;22.80;38.90;;;;;;5034541;28;20403;-66
2021/04/30 06:19:17;;;;;;;2.90;0.90;;;22.80;39.00;;;;;;5034003;28;20751;-66
2021/04/30 06:21:42;;;;;;;2.33;0.80;;;22.70;39.70;;;;;;5034512;28;20887;-66
2021/04/30 06:24:08;;;;;;;1.90;0.75;;;22.70;39.40;;;;;;5034414;28;20457;-66
2021/04/30 06:26:34;;;;;;;2.55;0.73;;;22.70;39.10;;;;;;5034471;28;20387;-66
2021/04/30 06:29:00;;;;;;;3.20;0.80;;;22.70;39.10;;;;;;5033750;28;20903;-66
2021/04/30 06:31:25;;;;;;;2.33;0.80;;;22.70;38.80;;;;;;5033066;28;20387;-66
2021/04/30 06:33:51;;;;;;;2.37;0.87;;;22.80;38.80;;;;;;5034279;28;20387;-65
2021/04/30 06:36:17;;;;;;;2.15;0.70;;;22.80;38.50;;;;;;5034145;28;20478;-66
2021/04/30 06:38:43;;;;;;;2.17;0.70;;;22.80;38.60;;;;;;5034259;28;20463;-65
2021/04/30 06:41:08;;;;;;;2.65;0.90;;;22.80;38.30;;;;;;5033713;28;20395;-66
2021/04/30 06:43:34;;;;;;;3.22;1.30;;;22.90;38.30;;;;;;5034005;28;20383;-66
2021/04/30 06:46:00;;;;;;;1.90;0.90;;;22.90;38.50;;;;;;5034046;28;20802;-65
2021/04/30 06:48:25;;;;;;;2.15;0.80;;;22.80;38.40;;;;;;5033723;28;20510;-66
2021/04/30 06:50:52;;;;;;;2.33;0.73;;;22.80;38.60;;;;;;5033963;28;20466;-66
2021/04/30 06:53:17;;;;;;;2.37;1.00;;;22.90;38.60;;;;;;5032182;28;20453;-65
2021/04/30 06:55:43;;;;;;;4.88;0.95;;;22.90;38.60;;;;;;5033670;28;20391;-66
2021/04/30 06:58:09;;;;;;;3.70;1.10;;;22.90;38.60;;;;;;5033688;28;20395;-66
2021/04/30 07:00:34;;;;;;;2.58;0.80;;;22.80;38.80;;;;;;5033763;28;20379;-66
2021/04/30 07:03:00;;;;;;;3.20;0.90;;;22.80;39.40;;;;;;5029767;28;20391;-61
2021/04/30 07:05:26;;;;;;;2.67;0.82;;;22.90;38.40;;;;;;5011962;28;20396;-66
2021/04/30 07:07:56;;;;;;;2.85;0.80;;;22.90;38.90;;;;;;5013174;28;20525;-65
2021/04/30 07:10:23;;;;;;;2.40;0.70;;;22.80;38.50;;;;;;5013287;28;20435;-66
2021/04/30 07:12:49;;;;;;;3.15;0.70;;;22.90;38.30;;;;;;5013427;28;20396;-59
2021/04/30 07:15:17;;;;;;;2.65;0.98;;;22.90;38.20;;;;;;5013079;28;20917;-59
2021/04/30 07:17:43;;;;;;;2.20;1.00;;;22.90;38.60;;;;;;5013637;28;20405;-62
2021/04/30 07:20:09;;;;;;;5.28;1.10;;;22.90;38.50;;;;;;5016580;28;20507;-59
2021/04/30 07:22:35;;;;;;;3.50;1.00;;;22.90;38.80;;;;;;5013263;28;20385;-60
2021/04/30 07:25:00;;;;;;;4.78;0.85;;;22.90;38.80;;;;;;5013582;28;20397;-59
2021/04/30 07:27:26;;;;;;;3.20;0.80;;;22.90;39.00;;;;;;5013050;28;20516;-59
2021/04/30 07:29:54;;;;;;;2.08;0.70;;;22.90;38.80;;;;;;5011200;28;20408;-60
2021/04/30 07:32:21;;;;;;;3.60;0.80;;;22.90;40.00;;;;;;5010786;28;20408;-64
2021/04/30 07:34:46;;;;;;;4.73;0.97;;;22.90;38.60;;;;;;5013219;28;20384;-64
2021/04/30 07:37:12;;;;;;;3.13;1.13;;;23.00;38.60;;;;;;5011773;28;20385;-61
2021/04/30 07:39:40;;;;;;;4.53;0.90;;;23.00;38.80;;;;;;5012710;28;20413;-61
2021/04/30 07:42:06;;;;;;;3.75;1.20;;;23.00;38.70;;;;;;5025513;28;20453;-61
2021/04/30 07:44:32;;;;;;;3.97;1.00;;;23.10;38.70;;;;;;5014049;28;20393;-61
2021/04/30 07:47:01;;;;;;;3.42;1.00;;;23.10;38.60;;;;;;5012255;28;20748;-61
2021/04/30 07:49:27;;;;;;;2.88;1.05;;;23.10;38.50;;;;;;5011172;28;20405;-59
2021/04/30 07:51:56;;;;;;;3.70;1.10;;;23.20;38.50;;;;;;5011004;28;20458;-60
2021/04/30 07:54:22;;;;;;;1.90;0.90;;;23.10;38.60;;;;;;5013002;28;20405;-59
2021/04/30 07:56:50;;;;;;;3.80;1.00;;;23.10;38.60;;;;;;5012348;28;20393;-60
2021/04/30 07:59:16;;;;;;;2.92;1.00;;;23.20;38.90;;;;;;5012243;28;20392;-59
2021/04/30 08:01:43;;;;;;;2.57;1.03;;;23.20;38.50;;;;;;5011394;28;20426;-62
2021/04/30 08:04:09;;;;;;;5.30;1.10;;;23.20;38.50;;;;;;5012952;28;20907;-62
2021/04/30 08:06:37;;;;;;;6.90;1.10;;;23.20;38.60;;;;;;5012724;28;20389;-62
2021/04/30 08:09:04;;;;;;;4.50;1.20;;;23.20;38.70;;;;;;5012062;28;20459;-59
2021/04/30 08:11:35;;;;;;;7.45;1.23;;;23.20;38.70;;;;;;5010880;28;20412;-59
2021/04/30 08:14:03;;;;;;;3.88;0.98;;;23.20;38.60;;;;;;5009763;28;20547;-61
2021/04/30 08:16:28;;;;;;;3.42;0.95;;;23.20;38.70;;;;;;5011383;28;20397;-62
2021/04/30 08:18:54;;;;;;;4.33;1.20;;;23.20;38.70;;;;;;5012158;28;20388;-60
2021/04/30 08:21:20;;;;;;;3.72;1.05;;;23.20;38.60;;;;;;5012245;28;20451;-65
2021/04/30 08:23:45;;;;;;;3.87;1.10;;;23.30;38.60;;;;;;5011442;28;20772;-62
2021/04/30 08:26:11;;;;;;;3.33;1.40;;;23.30;38.60;;;;;;5012036;28;20757;-62
2021/04/30 08:28:37;;;;;;;4.90;1.20;;;23.30;38.50;;;;;;5012087;28;20428;-60
2021/04/30 08:31:02;;;;;;;5.20;1.25;;;23.30;38.20;;;;;;5011896;28;20487;-60
2021/04/30 08:33:28;;;;;;;4.23;1.67;;;23.40;38.00;;;;;;5011631;28;20447;-64
2021/04/30 08:35:53;;;;;;;6.88;1.75;;;23.40;38.20;;;;;;5011884;28;20393;-60
2021/04/30 08:38:19;;;;;;;4.83;1.77;;;23.40;38.70;;;;;;5011955;28;20426;-62
2021/04/30 08:40:46;;;;;;;5.18;1.75;;;23.40;38.60;;;;;;5011879;28;20393;-61
2021/04/30 08:43:12;;;;;;;4.30;1.77;;;23.40;38.70;;;;;;5011601;28;20624;-62
2021/04/30 08:45:41;;;;;;;3.47;1.40;;;23.40;38.60;;;;;;5011382;28;20917;-62
2021/04/30 08:48:13;;;;;;;4.05;1.65;;;23.40;38.50;;;;;;5010442;28;20416;-60
2021/04/30 08:50:39;;;;;;;4.63;1.40;;;23.50;38.50;;;;;;5011573;28;20443;-64
2021/04/30 08:53:05;;;;;;;2.90;1.30;;;23.50;38.50;;;;;;5010268;28;20419;-63
2021/04/30 08:55:32;;;;;;;3.17;1.27;;;23.60;38.30;;;;;;5011603;28;20934;-60
2021/04/30 08:57:57;;;;;;;6.00;2.50;;;23.70;39.40;;;;;;5010506;28;20913;-60
2021/04/30 09:00:28;;;;;;;4.93;1.35;;;23.80;39.80;;;;;;5011651;28;20403;-60
2021/04/30 09:02:55;;;;;;;3.38;1.23;;;23.90;39.60;;;;;;5011696;28;20388;-59
2021/04/30 09:05:27;;;;;;;3.67;1.58;;;24.00;39.20;;;;;;5011299;28;20476;-60
2021/04/30 09:07:57;;;;;;;3.22;1.40;;;24.00;39.00;;;;;;5011607;28;20412;-64
2021/04/30 09:10:24;;;;;;;3.00;1.40;;;24.00;38.80;;;;;;5011768;28;20889;-63
2021/04/30 09:13:10;;;;;;;2.00;1.20;;;24.10;38.30;;;;;;5008769;28;20850;-65
2021/04/30 09:15:37;;;;;;;3.60;1.40;;;24.10;37.90;;;;;;5011035;28;20459;-64
2021/04/30 09:18:25;;;;;;;2.58;1.35;;;24.10;38.00;;;;;;5011485;28;20435;-60
2021/04/30 09:20:53;;;;;;;4.28;1.35;;;24.20;38.30;;;;;;5011466;28;20396;-61
2021/04/30 09:23:41;;;;;;;3.67;1.30;;;24.20;38.20;;;;;;5010887;28;20423;-60
2021/04/30 09:26:29;;;;;;;3.85;1.17;;;24.30;38.20;;;;;;5023810;28;20399;-59
2021/04/30 09:29:09;;;;;;;2.72;1.10;;;24.40;38.20;;;;;;5034378;28;20924;-59
2021/04/30 09:31:39;;;;;;;2.40;1.20;;;24.50;38.10;;;;;;5034615;28;20391;-62
2021/04/30 09:34:35;;;;;;;2.60;1.20;;;24.50;38.00;;;;;;5035028;28;20398;-60
2021/04/30 09:37:11;;;;;;;3.00;1.15;;;24.60;38.00;;;;;;5019020;28;20399;-59
2021/04/30 09:39:58;;;;;;;2.78;1.20;;;24.60;37.90;;;;;;5034346;28;20887;-60
2021/04/30 09:42:32;;;;;;;2.25;1.13;;;24.70;37.80;;;;;;5033661;28;20399;-59
2021/04/30 09:45:00;;;;;;;2.97;1.07;;;24.70;37.70;;;;;;5034592;28;20391;-60
2021/04/30 09:47:30;;;;;;;2.43;1.10;;;24.80;37.70;;;;;;5034232;28;20403;-61
2021/04/30 09:50:00;;;;;;;1.80;0.90;;;24.80;37.60;;;;;;5034411;28;20885;-60
2021/04/30 09:52:27;;;;;;;2.27;0.93;;;24.90;37.50;;;;;;5034743;28;20383;-62
2021/04/30 09:54:59;;;;;;;1.92;0.90;;;24.90;37.40;;;;;;5034711;28;20478;-59
2021/04/30 09:57:26;;;;;;;2.38;1.17;;;25.00;37.40;;;;;;5034112;28;20763;-61
2021/04/30 09:59:53;;;;;;;4.20;1.17;;;25.00;37.60;;;;;;5034927;28;20387;-60
2021/04/30 10:02:21;;;;;;;2.70;1.10;;;25.00;37.40;;;;;;5034551;28;20462;-60
2021/04/30 10:04:49;;;;;;;3.80;1.00;;;25.00;37.40;;;;;;5034308;28;20391;-59
2021/04/30 10:07:24;;;;;;;7.23;1.23;;;25.00;37.60;;;;;;5033931;28;20866;-60
2021/04/30 10:10:01;;;;;;;6.72;1.00;;;25.00;37.50;;;;;;5033510;28;20402;-59
2021/04/30 10:12:27;;;;;;;4.35;0.95;;;25.00;37.30;;;;;;5034445;28;20860;-59
2021/04/30 10:14:54;;;;;;;5.23;1.07;;;25.00;37.00;;;;;;5033862;28;20608;-59
2021/04/30 10:17:21;;;;;;;5.20;1.25;;;25.00;36.60;;;;;;5033024;28;20415;-63
2021/04/30 10:19:48;;;;;;;3.03;0.90;;;25.00;36.80;;;;;;5033329;28;20399;-59
2021/04/30 10:22:20;;;;;;;3.78;1.00;;;25.00;36.80;;;;;;5033601;28;20429;-60
2021/04/30 10:25:07;;;;;;;3.80;1.10;;;25.00;36.80;;;;;;5034197;28;20766;-60
2021/04/30 10:27:41;;;;;;;3.25;0.82;;;25.00;36.80;;;;;;5033440;28;20450;-59
2021/04/30 10:30:37;;;;;;;2.83;0.90;;;25.00;36.80;;;;;;5033999;28;20383;-60
2021/04/30 10:33:08;;;;;;;1.85;0.90;;;25.00;36.80;;;;;;5027858;28;20962;-59
2021/04/30 10:35:45;;;;;;;3.58;0.88;;;25.10;36.70;;;;;;5033095;28;20410;-60
2021/04/30 10:38:19;;;;;;;3.65;0.90;;;25.10;36.80;;;;;;5030174;28;20963;-60
2021/04/30 10:40:58;;;;;;;1.67;0.75;;;25.10;36.70;;;;;;5033459;28;20398;-60
2021/04/30 10:43:24;;;;;;;5.35;1.10;;;25.10;36.40;;;;;;5033409;28;20901;-60
2021/04/30 10:46:02;;;;;;;2.80;0.75;;;25.10;36.60;;;;;;5033277;28;20391;-60
2021/04/30 10:48:28;;;;;;;3.07;0.90;;;25.30;36.60;;;;;;5032468;28;20985;-60
2021/04/30 10:51:12;;;;;;;3.38;0.80;;;25.30;36.40;;;;;;5033388;28;20399;-60
2021/04/30 10:53:38;;;;;;;2.63;0.70;;;25.30;36.10;;;;;;5033706;28;20419;-61
2021/04/30 10:56:27;;;;;;;2.72;0.77;;;25.30;36.00;;;;;;5033053;28;20731;-60
2021/04/30 10:58:52;;;;;;;3.10;0.80;;;25.30;36.00;;;;;;5033601;28;20412;-60
2021/04/30 11:01:32;;;;;;;1.52;0.70;;;25.40;36.00;;;;;;5033078;28;20386;-60
2021/04/30 11:04:09;;;;;;;1.98;0.73;;;25.40;35.80;;;;;;5033629;28;20393;-60
2021/04/30 11:06:38;;;;;;;3.30;0.70;;;25.40;35.60;;;;;;5033532;28;20491;-60
2021/04/30 11:09:31;;;;;;;1.52;0.80;;;25.40;36.20;;;;;;5033471;28;20415;-60
2021/04/30 11:12:00;;;;;;;2.92;0.60;;;25.50;35.60;;;;;;5033499;28;20444;-60
2021/04/30 11:14:35;;;;;;;2.50;0.80;;;25.50;35.60;;;;;;5033332;28;20411;-60
2021/04/30 11:17:02;;;;;;;3.20;0.70;;;25.50;35.70;;;;;;5023065;28;20381;-60
2021/04/30 11:19:30;;;;;;;2.40;0.55;;;25.60;35.70;;;;;;5011359;28;20483;-60
2021/04/30 11:22:21;;;;;;;1.92;0.60;;;25.60;35.60;;;;;;5011772;28;20393;-59
2021/04/30 11:24:58;;;;;;;1.55;0.57;;;25.70;36.30;;;;;;5011708;28;20439;-59
2021/04/30 11:27:23;;;;;;;1.25;0.68;;;25.70;35.70;;;;;;5021318;28;20415;-60
2021/04/30 11:29:50;;;;;;;1.65;0.50;;;25.80;35.70;;;;;;5032620;28;20390;-60
2021/04/30 11:32:21;;;;;;;1.77;0.60;;;25.80;35.60;;;;;;5033024;28;20482;-60
2021/04/30 11:34:58;;;;;;;1.73;0.60;;;25.80;35.60;;;;;;5021600;28;20410;-60
2021/04/30 11:37:26;;;;;;;1.17;0.52;;;25.80;35.40;;;;;;5012524;28;20408;-61
2021/04/30 11:39:54;;;;;;;1.30;0.50;;;25.90;35.50;;;;;;5011030;28;20424;-63
2021/04/30 11:42:26;;;;;;;1.60;0.55;;;25.90;35.50;;;;;;5014266;28;20414;-62
2021/04/30 11:44:52;;;;;;;1.00;0.40;;;26.00;35.50;;;;;;5031331;28;20474;-65
2021/04/30 11:47:18;;;;;;;1.40;0.55;;;26.00;35.30;;;;;;5027611;28;20490;-62
2021/04/30 11:49:44;;;;;;;1.50;0.50;;;26.10;35.40;;;;;;5025330;28;20490;-65
2021/04/30 11:52:11;;;;;;;1.97;0.50;;;26.10;35.30;;;;;;5032253;28;20475;-61
2021/04/30 11:54:39;;;;;;;0.85;0.40;;;26.10;35.30;;;;;;5032502;28;20489;-63
2021/04/30 11:57:07;;;;;;;1.75;0.55;;;26.20;35.10;;;;;;5032676;28;20422;-61
2021/04/30 11:59:34;;;;;;;1.02;0.68;;;26.20;35.20;;;;;;5031901;28;20387;-63
2021/04/30 12:02:10;;;;;;;1.10;0.60;;;26.30;35.10;;;;;;5029993;28;20394;-61
2021/04/30 12:04:42;;;;;;;1.00;0.50;;;26.30;35.10;;;;;;5032185;28;20468;-64
2021/04/30 12:07:09;;;;;;;1.40;0.40;;;26.40;35.10;;;;;;5032470;28;20386;-63
2021/04/30 12:09:35;;;;;;;0.90;0.60;;;26.40;34.90;;;;;;5030056;28;20491;-64
2021/04/30 12:12:10;;;;;;;1.65;0.57;;;26.50;35.00;;;;;;5032334;28;20530;-60
2021/04/30 12:14:49;;;;;;;2.03;0.60;;;26.60;34.90;;;;;;5031958;28;20454;-59
2021/04/30 12:17:20;;;;;;;1.60;0.60;;;26.60;35.40;;;;;;5031182;28;20845;-60
2021/04/30 12:20:19;;;;;;;2.40;0.80;;;26.60;34.60;;;;;;5031987;28;20387;-60
2021/04/30 12:22:46;;;;;;;2.05;0.70;;;26.50;34.60;;;;;;5031996;28;20898;-60
2021/04/30 12:25:32;;;;;;;2.13;0.90;;;26.50;34.70;;;;;;5032175;28;20413;-62
2021/04/30 12:28:20;;;;;;;1.63;0.90;;;26.50;34.70;;;;;;5032001;28;20403;-62
2021/04/30 12:30:49;;;;;;;2.90;0.90;;;26.60;34.40;;;;;;5031903;28;20391;-60
2021/04/30 12:33:35;;;;;;;3.38;1.02;;;26.60;34.50;;;;;;5035411;28;20395;-61
2021/04/30 12:36:22;;;;;;;3.63;1.08;;;26.60;34.60;;;;;;5035226;28;20391;-60
2021/04/30 12:38:51;;;;;;;2.65;1.48;;;26.60;34.60;;;;;;5029267;28;20410;-60
2021/04/30 12:41:23;;;;;;;3.63;1.20;;;26.70;34.50;;;;;;5030353;28;20383;-60
2021/04/30 12:43:50;;;;;;;2.88;1.05;;;26.70;34.40;;;;;;5030351;28;20484;-62
2021/04/30 12:46:18;;;;;;;2.80;1.20;;;26.70;34.40;;;;;;5030505;28;20394;-60
2021/04/30 12:48:47;;;;;;;2.03;1.15;;;26.70;34.30;;;;;;5030933;28;20419;-60
2021/04/30 12:51:16;;;;;;;2.83;1.10;;;26.70;34.60;;;;;;5030519;28;20464;-59
2021/04/30 12:53:44;;;;;;;1.75;1.15;;;26.60;34.60;;;;;;5030269;28;20440;-60